createdAt,value
2018-12-29T05:00:34.116Z,77.60
2018-12-29T05:02:56.659Z,76.03
2018-12-29T05:05:19.088Z,72.50
2018-12-29T05:07:41.534Z,76.97
2018-12-29T05:10:05.782Z,80.73
2018-12-29T05:12:47.691Z,76.90
2018-12-29T06:00:17.294Z,68.97
2018-12-29T06:02:52.027Z,69.23
2018-12-29T06:05:26.927Z,67.20
2018-12-29T06:08:02.991Z,55.67
2018-12-29T06:10:38.011Z,59.07
2018-12-29T06:13:13.014Z,62.93
2018-12-29T07:01:20.755Z,53.60
2018-12-29T07:03:43.201Z,58.93
2018-12-29T07:06:05.658Z,57.67
2018-12-29T07:08:28.074Z,56.57
2018-12-29T07:11:03.588Z,54.67
2018-12-29T07:13:38.640Z,55.77
2018-12-29T08:01:36.020Z,57.07
2018-12-29T08:03:58.562Z,65.30
2018-12-29T08:06:21.090Z,60.17
2018-12-29T08:08:43.586Z,54.73
2018-12-29T08:11:06.015Z,61.67
2018-12-29T08:13:28.475Z,57.70
2018-12-29T09:01:33.675Z,68.03
2018-12-29T09:03:56.472Z,63.00
2018-12-29T09:06:19.190Z,65.37
2018-12-29T09:08:42.256Z,56.93
2018-12-29T09:11:04.834Z,55.13
2018-12-29T09:13:29.566Z,59.33
2018-12-29T10:02:34.426Z,49.57
2018-12-29T10:04:56.966Z,49.33
2018-12-29T10:07:19.530Z,47.23
2018-12-29T10:09:41.983Z,45.57
2018-12-29T10:12:04.555Z,48.70
2018-12-29T10:14:27.182Z,47.00
2018-12-29T11:00:37.803Z,52.17
2018-12-29T11:03:00.382Z,55.33
2018-12-29T11:05:22.890Z,52.07
2018-12-29T11:07:45.346Z,55.70
2018-12-29T11:10:07.796Z,57.20
2018-12-29T11:12:30.314Z,52.87
2018-12-29T11:14:52.883Z,56.13
2018-12-29T11:43:47.962Z,57.83
2018-12-29T11:46:10.426Z,56.23
2018-12-29T11:48:32.843Z,58.50
2018-12-29T11:50:55.438Z,54.77
2018-12-29T11:53:17.978Z,58.30
2018-12-29T11:55:41.178Z,59.50
2018-12-29T11:58:03.729Z,55.07
2018-12-29T12:00:26.534Z,57.20
2018-12-29T12:02:49.369Z,63.17
2018-12-29T12:05:12.038Z,53.57
2018-12-29T12:07:34.547Z,56.97
2018-12-29T12:09:57.118Z,54.83
2018-12-29T12:12:19.682Z,56.97
2018-12-29T12:14:42.218Z,56.27
2018-12-29T13:02:39.055Z,51.57
2018-12-29T13:05:13.997Z,60.37
2018-12-29T13:07:36.498Z,51.53
2018-12-29T13:10:19.518Z,57.90
2018-12-29T13:12:55.986Z,55.20
2018-12-29T14:01:45.690Z,55.37
2018-12-29T14:04:08.251Z,57.57
2018-12-29T14:06:30.775Z,51.37
2018-12-29T14:09:12.794Z,54.60
2018-12-29T14:11:48.031Z,51.33
2018-12-29T14:14:23.274Z,60.80
2018-12-29T16:02:47.779Z,70.17
2018-12-29T16:05:23.079Z,65.43
2018-12-29T16:07:58.290Z,71.50
2018-12-29T16:10:33.552Z,80.17
2018-12-29T17:00:33.674Z,82.03
2018-12-29T17:02:56.306Z,82.63
2018-12-29T17:05:18.823Z,75.40
2018-12-29T17:07:41.395Z,74.57
2018-12-29T17:10:04.281Z,79.70
2018-12-29T17:12:26.978Z,78.13
2018-12-29T17:14:51.646Z,74.43
2018-12-29T18:13:04.260Z,69.40
2018-12-29T19:02:38.325Z,48.57
2018-12-29T19:05:01.504Z,48.03
2018-12-29T19:07:24.278Z,47.20
2018-12-29T19:10:06.387Z,43.70
2018-12-29T19:12:41.654Z,47.00
2018-12-29T20:02:42.202Z,45.43
2018-12-29T20:05:17.258Z,46.20
2018-12-29T20:07:52.598Z,38.27
2018-12-29T20:10:27.631Z,41.33
2018-12-29T20:13:02.827Z,40.77
2018-12-29T21:02:40.235Z,32.83
2018-12-29T21:05:02.965Z,30.90
2018-12-29T21:07:25.520Z,31.23
2018-12-29T21:09:48.117Z,33.90
2018-12-29T21:12:10.642Z,35.97
2018-12-29T21:14:33.276Z,35.37
